sensor_id;sensor_type;location;lat;lon;timestamp;pressure;altitude;pressure_sealevel;temperature
15575;BMP180;7888;46.748;8.102;2023-05-19T00:01:39;94252.00;;;15.80
15575;BMP180;7888;46.748;8.102;2023-05-19T00:04:09;94250.00;;;15.90
15575;BMP180;7888;46.748;8.102;2023-05-19T00:06:37;94252.00;;;15.80
15575;BMP180;7888;46.748;8.102;2023-05-19T00:09:08;94251.00;;;15.90
15575;BMP180;7888;46.748;8.102;2023-05-19T00:11:37;94251.00;;;15.90
15575;BMP180;7888;46.748;8.102;2023-05-19T00:14:06;94257.00;;;15.90
15575;BMP180;7888;46.748;8.102;2023-05-19T00:16:33;94251.00;;;16.00
15575;BMP180;7888;46.748;8.102;2023-05-19T00:19:01;94247.00;;;16.00
15575;BMP180;7888;46.748;8.102;2023-05-19T00:21:28;94255.00;;;16.00
15575;BMP180;7888;46.748;8.102;2023-05-19T00:23:54;94216.00;;;16.00
15575;BMP180;7888;46.748;8.102;2023-05-19T00:26:21;94245.00;;;16.00
15575;BMP180;7888;46.748;8.102;2023-05-19T00:28:48;94243.00;;;16.00
15575;BMP180;7888;46.748;8.102;2023-05-19T00:31:14;94246.00;;;16.00
15575;BMP180;7888;46.748;8.102;2023-05-19T00:33:40;94238.00;;;16.00
15575;BMP180;7888;46.748;8.102;2023-05-19T00:36:07;94241.00;;;16.00
15575;BMP180;7888;46.748;8.102;2023-05-19T00:38:35;94241.00;;;16.00
15575;BMP180;7888;46.748;8.102;2023-05-19T00:41:03;94240.00;;;16.00
15575;BMP180;7888;46.748;8.102;2023-05-19T00:43:29;94237.00;;;16.10
15575;BMP180;7888;46.748;8.102;2023-05-19T00:45:56;94230.00;;;16.10
15575;BMP180;7888;46.748;8.102;2023-05-19T00:48:23;94233.00;;;16.10
15575;BMP180;7888;46.748;8.102;2023-05-19T00:50:50;94236.00;;;16.10
15575;BMP180;7888;46.748;8.102;2023-05-19T00:53:17;94237.00;;;16.10
15575;BMP180;7888;46.748;8.102;2023-05-19T00:55:45;94211.00;;;16.10
15575;BMP180;7888;46.748;8.102;2023-05-19T00:58:11;94219.00;;;16.10
15575;BMP180;7888;46.748;8.102;2023-05-19T01:00:38;94218.00;;;16.10
15575;BMP180;7888;46.748;8.102;2023-05-19T01:03:05;94217.00;;;16.00
15575;BMP180;7888;46.748;8.102;2023-05-19T01:05:41;94225.00;;;16.00
15575;BMP180;7888;46.748;8.102;2023-05-19T01:08:09;94224.00;;;16.00
15575;BMP180;7888;46.748;8.102;2023-05-19T01:10:35;94219.00;;;16.00
15575;BMP180;7888;46.748;8.102;2023-05-19T01:13:03;94214.00;;;15.90
15575;BMP180;7888;46.748;8.102;2023-05-19T01:18:56;94220.00;;;15.80
15575;BMP180;7888;46.748;8.102;2023-05-19T01:24:38;94198.00;;;15.60
15575;BMP180;7888;46.748;8.102;2023-05-19T01:32:41;94206.00;;;15.70
15575;BMP180;7888;46.748;8.102;2023-05-19T01:35:11;94219.00;;;15.80
15575;BMP180;7888;46.748;8.102;2023-05-19T01:37:41;94218.00;;;15.80
15575;BMP180;7888;46.748;8.102;2023-05-19T01:40:07;94214.00;;;15.80
15575;BMP180;7888;46.748;8.102;2023-05-19T01:42:36;94186.00;;;15.80
15575;BMP180;7888;46.748;8.102;2023-05-19T01:45:06;94209.00;;;15.80
15575;BMP180;7888;46.748;8.102;2023-05-19T01:47:37;94214.00;;;15.90
15575;BMP180;7888;46.748;8.102;2023-05-19T01:50:05;94216.00;;;15.90
15575;BMP180;7888;46.748;8.102;2023-05-19T01:52:31;94199.00;;;15.90
15575;BMP180;7888;46.748;8.102;2023-05-19T01:54:57;94186.00;;;15.90
15575;BMP180;7888;46.748;8.102;2023-05-19T02:09:38;94198.00;;;15.80
15575;BMP180;7888;46.748;8.102;2023-05-19T02:12:18;94201.00;;;15.70
15575;BMP180;7888;46.748;8.102;2023-05-19T02:14:54;94197.00;;;15.70
15575;BMP180;7888;46.748;8.102;2023-05-19T02:17:24;94188.00;;;15.70
15575;BMP180;7888;46.748;8.102;2023-05-19T02:19:51;94198.00;;;15.70
15575;BMP180;7888;46.748;8.102;2023-05-19T02:22:17;94191.00;;;15.70
15575;BMP180;7888;46.748;8.102;2023-05-19T02:24:43;94196.00;;;15.70
15575;BMP180;7888;46.748;8.102;2023-05-19T02:27:10;94191.00;;;15.70
15575;BMP180;7888;46.748;8.102;2023-05-19T02:29:36;94195.00;;;15.70
15575;BMP180;7888;46.748;8.102;2023-05-19T02:32:02;94190.00;;;15.70
15575;BMP180;7888;46.748;8.102;2023-05-19T02:34:28;94190.00;;;15.70
15575;BMP180;7888;46.748;8.102;2023-05-19T02:36:54;94191.00;;;15.70
15575;BMP180;7888;46.748;8.102;2023-05-19T02:39:21;94190.00;;;15.70
15575;BMP180;7888;46.748;8.102;2023-05-19T02:41:46;94193.00;;;15.80
15575;BMP180;7888;46.748;8.102;2023-05-19T02:44:12;94192.00;;;15.80
15575;BMP180;7888;46.748;8.102;2023-05-19T02:46:38;94186.00;;;15.80
15575;BMP180;7888;46.748;8.102;2023-05-19T02:49:04;94191.00;;;15.80
15575;BMP180;7888;46.748;8.102;2023-05-19T02:51:29;94182.00;;;15.80
15575;BMP180;7888;46.748;8.102;2023-05-19T02:53:55;94192.00;;;15.80
15575;BMP180;7888;46.748;8.102;2023-05-19T02:56:21;94163.00;;;15.80
15575;BMP180;7888;46.748;8.102;2023-05-19T02:58:47;94182.00;;;15.80
15575;BMP180;7888;46.748;8.102;2023-05-19T03:01:12;94187.00;;;15.80
15575;BMP180;7888;46.748;8.102;2023-05-19T03:03:38;94146.00;;;15.80
15575;BMP180;7888;46.748;8.102;2023-05-19T03:06:04;94154.00;;;15.80
15575;BMP180;7888;46.748;8.102;2023-05-19T03:08:34;94167.00;;;15.80
15575;BMP180;7888;46.748;8.102;2023-05-19T03:11:01;94141.00;;;15.80
15575;BMP180;7888;46.748;8.102;2023-05-19T03:13:27;94170.00;;;15.80
15575;BMP180;7888;46.748;8.102;2023-05-19T03:15:53;94172.00;;;15.80
15575;BMP180;7888;46.748;8.102;2023-05-19T03:18:21;94179.00;;;15.80
15575;BMP180;7888;46.748;8.102;2023-05-19T03:20:49;94173.00;;;15.70
15575;BMP180;7888;46.748;8.102;2023-05-19T03:23:15;94167.00;;;15.70
15575;BMP180;7888;46.748;8.102;2023-05-19T03:25:41;94181.00;;;15.70
15575;BMP180;7888;46.748;8.102;2023-05-19T03:28:06;94181.00;;;15.60
15575;BMP180;7888;46.748;8.102;2023-05-19T03:30:32;94145.00;;;15.60
15575;BMP180;7888;46.748;8.102;2023-05-19T03:32:58;94183.00;;;15.70
15575;BMP180;7888;46.748;8.102;2023-05-19T03:35:26;94170.00;;;15.60
15575;BMP180;7888;46.748;8.102;2023-05-19T03:37:52;94184.00;;;15.70
15575;BMP180;7888;46.748;8.102;2023-05-19T03:40:17;94182.00;;;15.70
15575;BMP180;7888;46.748;8.102;2023-05-19T03:42:43;94178.00;;;15.70
15575;BMP180;7888;46.748;8.102;2023-05-19T03:45:09;94186.00;;;15.70
15575;BMP180;7888;46.748;8.102;2023-05-19T03:47:35;94176.00;;;15.60
15575;BMP180;7888;46.748;8.102;2023-05-19T03:50:01;94152.00;;;15.60
15575;BMP180;7888;46.748;8.102;2023-05-19T03:52:27;94167.00;;;15.50
15575;BMP180;7888;46.748;8.102;2023-05-19T03:54:52;94172.00;;;15.50
15575;BMP180;7888;46.748;8.102;2023-05-19T03:57:18;94183.00;;;15.50
15575;BMP180;7888;46.748;8.102;2023-05-19T03:59:44;94179.00;;;15.50
15575;BMP180;7888;46.748;8.102;2023-05-19T04:02:10;94181.00;;;15.50
15575;BMP180;7888;46.748;8.102;2023-05-19T04:04:36;94181.00;;;15.50
15575;BMP180;7888;46.748;8.102;2023-05-19T04:07:02;94179.00;;;15.40
15575;BMP180;7888;46.748;8.102;2023-05-19T04:09:28;94167.00;;;15.40
15575;BMP180;7888;46.748;8.102;2023-05-19T04:11:56;94150.00;;;15.40
15575;BMP180;7888;46.748;8.102;2023-05-19T04:14:22;94167.00;;;15.30
15575;BMP180;7888;46.748;8.102;2023-05-19T04:16:49;94166.00;;;15.20
15575;BMP180;7888;46.748;8.102;2023-05-19T04:19:14;94177.00;;;15.30
15575;BMP180;7888;46.748;8.102;2023-05-19T04:21:40;94178.00;;;15.20
15575;BMP180;7888;46.748;8.102;2023-05-19T04:24:06;94184.00;;;15.20
15575;BMP180;7888;46.748;8.102;2023-05-19T04:26:32;94188.00;;;15.30
15575;BMP180;7888;46.748;8.102;2023-05-19T04:28:59;94190.00;;;15.30
15575;BMP180;7888;46.748;8.102;2023-05-19T04:31:26;94188.00;;;15.30
15575;BMP180;7888;46.748;8.102;2023-05-19T04:33:53;94188.00;;;15.30
15575;BMP180;7888;46.748;8.102;2023-05-19T04:36:19;94168.00;;;15.30
15575;BMP180;7888;46.748;8.102;2023-05-19T04:38:46;94162.00;;;15.30
15575;BMP180;7888;46.748;8.102;2023-05-19T04:41:12;94151.00;;;15.30
15575;BMP180;7888;46.748;8.102;2023-05-19T04:43:38;94185.00;;;15.30
15575;BMP180;7888;46.748;8.102;2023-05-19T04:46:07;94190.00;;;15.40
15575;BMP180;7888;46.748;8.102;2023-05-19T04:48:34;94188.00;;;15.40
15575;BMP180;7888;46.748;8.102;2023-05-19T04:51:00;94185.00;;;15.40
15575;BMP180;7888;46.748;8.102;2023-05-19T04:53:29;94187.00;;;15.40
15575;BMP180;7888;46.748;8.102;2023-05-19T04:55:57;94188.00;;;15.40
15575;BMP180;7888;46.748;8.102;2023-05-19T04:58:22;94188.00;;;15.50
15575;BMP180;7888;46.748;8.102;2023-05-19T05:00:51;94185.00;;;15.50
15575;BMP180;7888;46.748;8.102;2023-05-19T05:03:17;94192.00;;;15.50
15575;BMP180;7888;46.748;8.102;2023-05-19T05:05:43;94183.00;;;15.50
15575;BMP180;7888;46.748;8.102;2023-05-19T05:08:11;94147.00;;;15.50
15575;BMP180;7888;46.748;8.102;2023-05-19T05:10:39;94186.00;;;15.50
15575;BMP180;7888;46.748;8.102;2023-05-19T05:13:06;94179.00;;;15.60
15575;BMP180;7888;46.748;8.102;2023-05-19T05:15:32;94188.00;;;15.60
15575;BMP180;7888;46.748;8.102;2023-05-19T05:17:58;94183.00;;;15.60
15575;BMP180;7888;46.748;8.102;2023-05-19T05:20:25;94186.00;;;15.70
15575;BMP180;7888;46.748;8.102;2023-05-19T05:22:51;94189.00;;;15.70
15575;BMP180;7888;46.748;8.102;2023-05-19T05:25:18;94188.00;;;15.70
15575;BMP180;7888;46.748;8.102;2023-05-19T05:27:44;94176.00;;;15.80
15575;BMP180;7888;46.748;8.102;2023-05-19T05:30:10;94183.00;;;15.80
15575;BMP180;7888;46.748;8.102;2023-05-19T05:32:36;94183.00;;;15.90
15575;BMP180;7888;46.748;8.102;2023-05-19T05:35:02;94171.00;;;15.90
15575;BMP180;7888;46.748;8.102;2023-05-19T05:37:29;94177.00;;;16.00
15575;BMP180;7888;46.748;8.102;2023-05-19T05:39:55;94188.00;;;16.00
15575;BMP180;7888;46.748;8.102;2023-05-19T05:42:21;94185.00;;;16.10
15575;BMP180;7888;46.748;8.102;2023-05-19T05:44:47;94187.00;;;16.10
15575;BMP180;7888;46.748;8.102;2023-05-19T05:47:13;94178.00;;;16.20
15575;BMP180;7888;46.748;8.102;2023-05-19T05:49:40;94183.00;;;16.20
15575;BMP180;7888;46.748;8.102;2023-05-19T05:52:10;94196.00;;;16.30
15575;BMP180;7888;46.748;8.102;2023-05-19T05:54:37;94188.00;;;16.30
15575;BMP180;7888;46.748;8.102;2023-05-19T05:57:03;94183.00;;;16.40
15575;BMP180;7888;46.748;8.102;2023-05-19T05:59:29;94178.00;;;16.40
15575;BMP180;7888;46.748;8.102;2023-05-19T06:01:55;94190.00;;;16.50
15575;BMP180;7888;46.748;8.102;2023-05-19T06:04:20;94181.00;;;16.50
15575;BMP180;7888;46.748;8.102;2023-05-19T06:06:46;94182.00;;;16.60
15575;BMP180;7888;46.748;8.102;2023-05-19T06:09:12;94183.00;;;16.60
15575;BMP180;7888;46.748;8.102;2023-05-19T06:11:38;94185.00;;;16.70
15575;BMP180;7888;46.748;8.102;2023-05-19T06:14:04;94184.00;;;16.70
15575;BMP180;7888;46.748;8.102;2023-05-19T06:16:29;94189.00;;;16.70
15575;BMP180;7888;46.748;8.102;2023-05-19T06:18:55;94178.00;;;16.80
15575;BMP180;7888;46.748;8.102;2023-05-19T06:21:21;94165.00;;;16.80
15575;BMP180;7888;46.748;8.102;2023-05-19T06:23:47;94179.00;;;16.90
15575;BMP180;7888;46.748;8.102;2023-05-19T06:26:13;94186.00;;;17.00
15575;BMP180;7888;46.748;8.102;2023-05-19T06:28:39;94165.00;;;17.00
15575;BMP180;7888;46.748;8.102;2023-05-19T06:31:05;94183.00;;;17.00
15575;BMP180;7888;46.748;8.102;2023-05-19T06:33:31;94186.00;;;17.10
15575;BMP180;7888;46.748;8.102;2023-05-19T06:35:58;94182.00;;;17.10
15575;BMP180;7888;46.748;8.102;2023-05-19T06:38:24;94177.00;;;17.10
15575;BMP180;7888;46.748;8.102;2023-05-19T06:40:49;94182.00;;;17.10
15575;BMP180;7888;46.748;8.102;2023-05-19T06:43:15;94172.00;;;17.20
15575;BMP180;7888;46.748;8.102;2023-05-19T06:45:41;94187.00;;;17.20
15575;BMP180;7888;46.748;8.102;2023-05-19T06:48:07;94183.00;;;17.20
15575;BMP180;7888;46.748;8.102;2023-05-19T06:50:32;94159.00;;;17.20
15575;BMP180;7888;46.748;8.102;2023-05-19T06:52:58;94186.00;;;17.20
15575;BMP180;7888;46.748;8.102;2023-05-19T06:55:24;94184.00;;;17.30
15575;BMP180;7888;46.748;8.102;2023-05-19T06:57:50;94181.00;;;17.30
15575;BMP180;7888;46.748;8.102;2023-05-19T07:00:16;94186.00;;;17.30
15575;BMP180;7888;46.748;8.102;2023-05-19T07:02:43;94183.00;;;17.30
15575;BMP180;7888;46.748;8.102;2023-05-19T07:05:09;94184.00;;;17.30
15575;BMP180;7888;46.748;8.102;2023-05-19T07:07:34;94158.00;;;17.30
15575;BMP180;7888;46.748;8.102;2023-05-19T07:10:00;94190.00;;;17.40
15575;BMP180;7888;46.748;8.102;2023-05-19T07:12:26;94183.00;;;17.40
15575;BMP180;7888;46.748;8.102;2023-05-19T07:14:52;94187.00;;;17.50
15575;BMP180;7888;46.748;8.102;2023-05-19T07:17:18;94167.00;;;17.50
15575;BMP180;7888;46.748;8.102;2023-05-19T07:19:44;94183.00;;;17.50
15575;BMP180;7888;46.748;8.102;2023-05-19T07:22:10;94187.00;;;17.50
15575;BMP180;7888;46.748;8.102;2023-05-19T07:24:35;94182.00;;;17.60
15575;BMP180;7888;46.748;8.102;2023-05-19T07:27:01;94169.00;;;17.60
15575;BMP180;7888;46.748;8.102;2023-05-19T07:29:27;94187.00;;;17.70
15575;BMP180;7888;46.748;8.102;2023-05-19T07:31:53;94182.00;;;17.70
15575;BMP180;7888;46.748;8.102;2023-05-19T07:34:23;94181.00;;;17.70
15575;BMP180;7888;46.748;8.102;2023-05-19T07:36:49;94152.00;;;17.70
15575;BMP180;7888;46.748;8.102;2023-05-19T07:39:16;94164.00;;;17.10
15575;BMP180;7888;46.748;8.102;2023-05-19T07:41:42;94159.00;;;17.70
15575;BMP180;7888;46.748;8.102;2023-05-19T07:44:08;94167.00;;;17.80
15575;BMP180;7888;46.748;8.102;2023-05-19T07:46:35;94183.00;;;17.90
15575;BMP180;7888;46.748;8.102;2023-05-19T07:49:02;94143.00;;;18.00
15575;BMP180;7888;46.748;8.102;2023-05-19T07:51:28;94172.00;;;18.10
15575;BMP180;7888;46.748;8.102;2023-05-19T07:53:54;94180.00;;;18.10
15575;BMP180;7888;46.748;8.102;2023-05-19T07:56:20;94180.00;;;18.30
15575;BMP180;7888;46.748;8.102;2023-05-19T07:58:46;94165.00;;;18.40
15575;BMP180;7888;46.748;8.102;2023-05-19T08:01:12;94168.00;;;18.50
15575;BMP180;7888;46.748;8.102;2023-05-19T08:03:38;94172.00;;;18.60
15575;BMP180;7888;46.748;8.102;2023-05-19T08:06:03;94182.00;;;18.60
15575;BMP180;7888;46.748;8.102;2023-05-19T08:08:29;94154.00;;;18.70
15575;BMP180;7888;46.748;8.102;2023-05-19T08:11:01;94177.00;;;18.80
15575;BMP180;7888;46.748;8.102;2023-05-19T08:13:29;94155.00;;;18.90
15575;BMP180;7888;46.748;8.102;2023-05-19T08:15:54;94157.00;;;19.00
15575;BMP180;7888;46.748;8.102;2023-05-19T08:18:25;94164.00;;;19.20
15575;BMP180;7888;46.748;8.102;2023-05-19T08:20:51;94162.00;;;19.20
15575;BMP180;7888;46.748;8.102;2023-05-19T08:23:17;94160.00;;;19.40
15575;BMP180;7888;46.748;8.102;2023-05-19T08:25:43;94168.00;;;19.50
15575;BMP180;7888;46.748;8.102;2023-05-19T08:28:09;94155.00;;;19.60
15575;BMP180;7888;46.748;8.102;2023-05-19T08:30:35;94158.00;;;19.70
15575;BMP180;7888;46.748;8.102;2023-05-19T08:33:01;94160.00;;;19.80
15575;BMP180;7888;46.748;8.102;2023-05-19T08:35:27;94159.00;;;19.80
15575;BMP180;7888;46.748;8.102;2023-05-19T08:37:53;94155.00;;;19.90
15575;BMP180;7888;46.748;8.102;2023-05-19T08:40:19;94153.00;;;20.10
15575;BMP180;7888;46.748;8.102;2023-05-19T08:42:46;94152.00;;;20.20
15575;BMP180;7888;46.748;8.102;2023-05-19T08:45:12;94154.00;;;20.30
15575;BMP180;7888;46.748;8.102;2023-05-19T08:47:41;94141.00;;;20.30
15575;BMP180;7888;46.748;8.102;2023-05-19T08:50:08;94146.00;;;20.40
15575;BMP180;7888;46.748;8.102;2023-05-19T08:52:52;94146.00;;;20.40
15575;BMP180;7888;46.748;8.102;2023-05-19T08:55:43;94148.00;;;20.40
15575;BMP180;7888;46.748;8.102;2023-05-19T08:58:12;94156.00;;;20.50
15575;BMP180;7888;46.748;8.102;2023-05-19T09:00:40;94142.00;;;20.50
15575;BMP180;7888;46.748;8.102;2023-05-19T09:03:07;94145.00;;;20.50
15575;BMP180;7888;46.748;8.102;2023-05-19T09:05:33;94154.00;;;20.60
15575;BMP180;7888;46.748;8.102;2023-05-19T09:07:58;94138.00;;;20.70
15575;BMP180;7888;46.748;8.102;2023-05-19T09:10:27;94142.00;;;20.80
15575;BMP180;7888;46.748;8.102;2023-05-19T09:12:53;94142.00;;;20.90
15575;BMP180;7888;46.748;8.102;2023-05-19T09:15:18;94134.00;;;20.90
15575;BMP180;7888;46.748;8.102;2023-05-19T09:17:47;94132.00;;;21.00
15575;BMP180;7888;46.748;8.102;2023-05-19T09:20:15;94138.00;;;21.20
15575;BMP180;7888;46.748;8.102;2023-05-19T09:22:45;94120.00;;;21.20
15575;BMP180;7888;46.748;8.102;2023-05-19T09:25:22;94132.00;;;21.40
15575;BMP180;7888;46.748;8.102;2023-05-19T09:27:49;94136.00;;;21.50
15575;BMP180;7888;46.748;8.102;2023-05-19T09:30:18;94128.00;;;21.70
15575;BMP180;7888;46.748;8.102;2023-05-19T09:32:44;94136.00;;;21.80
15575;BMP180;7888;46.748;8.102;2023-05-19T09:35:12;94138.00;;;21.80
15575;BMP180;7888;46.748;8.102;2023-05-19T09:37:42;94138.00;;;21.80
15575;BMP180;7888;46.748;8.102;2023-05-19T09:40:14;94141.00;;;21.90
15575;BMP180;7888;46.748;8.102;2023-05-19T09:42:41;94134.00;;;22.00
15575;BMP180;7888;46.748;8.102;2023-05-19T09:45:08;94137.00;;;22.10
15575;BMP180;7888;46.748;8.102;2023-05-19T09:47:39;94131.00;;;22.00
15575;BMP180;7888;46.748;8.102;2023-05-19T09:50:10;94134.00;;;22.20
15575;BMP180;7888;46.748;8.102;2023-05-19T09:52:43;94129.00;;;22.30
15575;BMP180;7888;46.748;8.102;2023-05-19T09:55:11;94126.00;;;22.30
15575;BMP180;7888;46.748;8.102;2023-05-19T09:57:39;94130.00;;;22.40
15575;BMP180;7888;46.748;8.102;2023-05-19T10:00:07;94135.00;;;22.50
15575;BMP180;7888;46.748;8.102;2023-05-19T10:02:44;94127.00;;;22.40
15575;BMP180;7888;46.748;8.102;2023-05-19T10:05:16;94125.00;;;22.40
15575;BMP180;7888;46.748;8.102;2023-05-19T10:07:43;94130.00;;;22.60
15575;BMP180;7888;46.748;8.102;2023-05-19T10:10:12;94116.00;;;22.70
15575;BMP180;7888;46.748;8.102;2023-05-19T10:12:39;94138.00;;;22.90
15575;BMP180;7888;46.748;8.102;2023-05-19T10:15:25;94130.00;;;22.90
15575;BMP180;7888;46.748;8.102;2023-05-19T10:17:51;94122.00;;;22.90
15575;BMP180;7888;46.748;8.102;2023-05-19T10:20:18;94120.00;;;22.90
15575;BMP180;7888;46.748;8.102;2023-05-19T10:22:45;94130.00;;;23.00
15575;BMP180;7888;46.748;8.102;2023-05-19T10:25:11;94127.00;;;23.10
15575;BMP180;7888;46.748;8.102;2023-05-19T10:28:04;94137.00;;;23.00
15575;BMP180;7888;46.748;8.102;2023-05-19T10:30:37;94140.00;;;23.10
15575;BMP180;7888;46.748;8.102;2023-05-19T10:33:09;94134.00;;;23.20
15575;BMP180;7888;46.748;8.102;2023-05-19T10:38:47;94126.00;;;23.00
15575;BMP180;7888;46.748;8.102;2023-05-19T10:47:07;94129.00;;;23.00
15575;BMP180;7888;46.748;8.102;2023-05-19T10:49:36;94112.00;;;22.90
15575;BMP180;7888;46.748;8.102;2023-05-19T10:52:03;94123.00;;;22.80
15575;BMP180;7888;46.748;8.102;2023-05-19T10:54:39;94130.00;;;22.70
15575;BMP180;7888;46.748;8.102;2023-05-19T10:57:06;94128.00;;;22.70
15575;BMP180;7888;46.748;8.102;2023-05-19T10:59:35;94125.00;;;22.70
15575;BMP180;7888;46.748;8.102;2023-05-19T11:02:07;94124.00;;;22.70
15575;BMP180;7888;46.748;8.102;2023-05-19T11:04:47;94123.00;;;22.60
15575;BMP180;7888;46.748;8.102;2023-05-19T11:07:20;94132.00;;;22.60
15575;BMP180;7888;46.748;8.102;2023-05-19T11:09:51;94123.00;;;22.70
15575;BMP180;7888;46.748;8.102;2023-05-19T11:12:21;94129.00;;;22.70
15575;BMP180;7888;46.748;8.102;2023-05-19T11:14:54;94123.00;;;22.80
15575;BMP180;7888;46.748;8.102;2023-05-19T11:17:20;94113.00;;;22.80
15575;BMP180;7888;46.748;8.102;2023-05-19T11:19:56;94120.00;;;22.80
15575;BMP180;7888;46.748;8.102;2023-05-19T11:22:27;94107.00;;;22.90
15575;BMP180;7888;46.748;8.102;2023-05-19T11:24:56;94105.00;;;22.90
15575;BMP180;7888;46.748;8.102;2023-05-19T11:27:30;94121.00;;;22.80
15575;BMP180;7888;46.748;8.102;2023-05-19T11:30:08;94115.00;;;22.80
15575;BMP180;7888;46.748;8.102;2023-05-19T11:32:36;94121.00;;;22.90
15575;BMP180;7888;46.748;8.102;2023-05-19T11:35:04;94128.00;;;22.80
15575;BMP180;7888;46.748;8.102;2023-05-19T11:37:31;94121.00;;;22.80
15575;BMP180;7888;46.748;8.102;2023-05-19T11:40:00;94119.00;;;22.70
15575;BMP180;7888;46.748;8.102;2023-05-19T11:42:26;94121.00;;;22.70
15575;BMP180;7888;46.748;8.102;2023-05-19T11:44:54;94118.00;;;22.60
15575;BMP180;7888;46.748;8.102;2023-05-19T11:47:20;94121.00;;;22.70
15575;BMP180;7888;46.748;8.102;2023-05-19T11:49:50;94119.00;;;22.70
15575;BMP180;7888;46.748;8.102;2023-05-19T11:52:26;94113.00;;;22.80
15575;BMP180;7888;46.748;8.102;2023-05-19T11:54:52;94117.00;;;22.90
15575;BMP180;7888;46.748;8.102;2023-05-19T11:57:18;94122.00;;;22.90
15575;BMP180;7888;46.748;8.102;2023-05-19T11:59:44;94097.00;;;22.90
15575;BMP180;7888;46.748;8.102;2023-05-19T12:02:23;94125.00;;;22.80
15575;BMP180;7888;46.748;8.102;2023-05-19T12:04:53;94115.00;;;22.90
15575;BMP180;7888;46.748;8.102;2023-05-19T12:07:23;94109.00;;;22.90
15575;BMP180;7888;46.748;8.102;2023-05-19T12:09:51;94116.00;;;23.00
15575;BMP180;7888;46.748;8.102;2023-05-19T12:12:19;94118.00;;;23.00
15575;BMP180;7888;46.748;8.102;2023-05-19T12:14:50;94114.00;;;23.10
15575;BMP180;7888;46.748;8.102;2023-05-19T12:17:19;94110.00;;;23.10
15575;BMP180;7888;46.748;8.102;2023-05-19T12:19:49;94091.00;;;23.10
15575;BMP180;7888;46.748;8.102;2023-05-19T12:22:17;94119.00;;;23.10
15575;BMP180;7888;46.748;8.102;2023-05-19T12:24:45;94116.00;;;23.00
15575;BMP180;7888;46.748;8.102;2023-05-19T12:27:23;94110.00;;;23.00
15575;BMP180;7888;46.748;8.102;2023-05-19T12:29:52;94096.00;;;23.10
15575;BMP180;7888;46.748;8.102;2023-05-19T12:32:26;94110.00;;;23.10
15575;BMP180;7888;46.748;8.102;2023-05-19T12:34:55;94111.00;;;23.10
15575;BMP180;7888;46.748;8.102;2023-05-19T12:37:25;94103.00;;;23.10
15575;BMP180;7888;46.748;8.102;2023-05-19T12:39:52;94115.00;;;23.20
15575;BMP180;7888;46.748;8.102;2023-05-19T12:42:18;94102.00;;;23.10
15575;BMP180;7888;46.748;8.102;2023-05-19T12:44:49;94121.00;;;23.10
15575;BMP180;7888;46.748;8.102;2023-05-19T12:47:18;94091.00;;;23.00
15575;BMP180;7888;46.748;8.102;2023-05-19T12:50:06;94111.00;;;22.90
15575;BMP180;7888;46.748;8.102;2023-05-19T12:52:41;94095.00;;;23.00
15575;BMP180;7888;46.748;8.102;2023-05-19T12:55:08;94108.00;;;23.00
15575;BMP180;7888;46.748;8.102;2023-05-19T12:57:38;94105.00;;;23.10
15575;BMP180;7888;46.748;8.102;2023-05-19T13:00:18;94102.00;;;23.10
15575;BMP180;7888;46.748;8.102;2023-05-19T13:03:07;94113.00;;;23.10
15575;BMP180;7888;46.748;8.102;2023-05-19T13:05:40;94093.00;;;23.20
15575;BMP180;7888;46.748;8.102;2023-05-19T13:08:16;94094.00;;;23.30
15575;BMP180;7888;46.748;8.102;2023-05-19T13:10:45;94095.00;;;23.30
15575;BMP180;7888;46.748;8.102;2023-05-19T13:13:12;94091.00;;;23.40
15575;BMP180;7888;46.748;8.102;2023-05-19T13:15:43;94099.00;;;23.40
15575;BMP180;7888;46.748;8.102;2023-05-19T13:18:12;94104.00;;;23.50
15575;BMP180;7888;46.748;8.102;2023-05-19T13:20:41;94103.00;;;23.50
15575;BMP180;7888;46.748;8.102;2023-05-19T13:23:09;94090.00;;;23.60
15575;BMP180;7888;46.748;8.102;2023-05-19T13:25:35;94098.00;;;23.70
15575;BMP180;7888;46.748;8.102;2023-05-19T13:28:02;94102.00;;;23.70
15575;BMP180;7888;46.748;8.102;2023-05-19T13:30:32;94102.00;;;23.70
15575;BMP180;7888;46.748;8.102;2023-05-19T13:32:58;94099.00;;;23.60
15575;BMP180;7888;46.748;8.102;2023-05-19T13:35:23;94100.00;;;23.60
15575;BMP180;7888;46.748;8.102;2023-05-19T13:37:49;94098.00;;;23.60
15575;BMP180;7888;46.748;8.102;2023-05-19T13:40:15;94089.00;;;23.60
15575;BMP180;7888;46.748;8.102;2023-05-19T13:42:42;94105.00;;;23.60
15575;BMP180;7888;46.748;8.102;2023-05-19T13:45:08;94093.00;;;23.60
15575;BMP180;7888;46.748;8.102;2023-05-19T13:47:34;94102.00;;;23.60
15575;BMP180;7888;46.748;8.102;2023-05-19T13:50:02;94095.00;;;23.60
15575;BMP180;7888;46.748;8.102;2023-05-19T13:52:29;94091.00;;;23.60
15575;BMP180;7888;46.748;8.102;2023-05-19T13:54:55;94083.00;;;23.50
15575;BMP180;7888;46.748;8.102;2023-05-19T13:57:23;94089.00;;;23.50
15575;BMP180;7888;46.748;8.102;2023-05-19T13:59:48;94092.00;;;23.40
15575;BMP180;7888;46.748;8.102;2023-05-19T14:02:14;94097.00;;;23.40
15575;BMP180;7888;46.748;8.102;2023-05-19T14:04:40;94092.00;;;23.40
15575;BMP180;7888;46.748;8.102;2023-05-19T14:07:07;94097.00;;;23.40
15575;BMP180;7888;46.748;8.102;2023-05-19T14:09:34;94075.00;;;23.40
15575;BMP180;7888;46.748;8.102;2023-05-19T14:12:01;94090.00;;;23.40
15575;BMP180;7888;46.748;8.102;2023-05-19T14:14:27;94072.00;;;23.40
15575;BMP180;7888;46.748;8.102;2023-05-19T14:16:54;94084.00;;;23.40
15575;BMP180;7888;46.748;8.102;2023-05-19T14:19:20;94092.00;;;23.40
15575;BMP180;7888;46.748;8.102;2023-05-19T14:21:49;94081.00;;;23.30
15575;BMP180;7888;46.748;8.102;2023-05-19T14:24:14;94077.00;;;23.30
15575;BMP180;7888;46.748;8.102;2023-05-19T14:26:40;94087.00;;;23.40
15575;BMP180;7888;46.748;8.102;2023-05-19T14:29:06;94082.00;;;23.30
15575;BMP180;7888;46.748;8.102;2023-05-19T14:31:33;94079.00;;;23.40
15575;BMP180;7888;46.748;8.102;2023-05-19T14:33:59;94083.00;;;23.40
15575;BMP180;7888;46.748;8.102;2023-05-19T14:36:25;94082.00;;;23.50
15575;BMP180;7888;46.748;8.102;2023-05-19T14:38:51;94080.00;;;23.50
15575;BMP180;7888;46.748;8.102;2023-05-19T14:41:16;94066.00;;;23.60
15575;BMP180;7888;46.748;8.102;2023-05-19T14:43:42;94088.00;;;23.60
15575;BMP180;7888;46.748;8.102;2023-05-19T14:46:08;94078.00;;;23.60
15575;BMP180;7888;46.748;8.102;2023-05-19T14:48:34;94054.00;;;23.70
15575;BMP180;7888;46.748;8.102;2023-05-19T14:51:00;94091.00;;;23.70
15575;BMP180;7888;46.748;8.102;2023-05-19T14:53:26;94084.00;;;23.70
15575;BMP180;7888;46.748;8.102;2023-05-19T14:55:51;94086.00;;;23.70
15575;BMP180;7888;46.748;8.102;2023-05-19T14:58:17;94084.00;;;23.70